Time;durP1;ratioP1;P1;durP2;ratioP2;P2;SDS_P1;SDS_P2;PMS_P1;PMS_P2;Temp;Humidity;BMP_temperature;BMP_pressure;BME280_temperature;BME280_humidity;BME280_pressure;Samples;Min_cycle;Max_cycle;Signal;HPM_P1;HPM_P2
2022/03/23 00:02:01;;;;;;;88.18;40.03;;;;;;;;;;4975607;28;20026;-82
2022/03/23 00:04:27;;;;;;;83.40;37.97;;;;;;;;;;4963088;28;20137;-82
2022/03/23 00:06:53;;;;;;;80.38;37.70;;;;;;;;;;4965820;28;20129;-82
2022/03/23 00:09:20;;;;;;;88.00;38.90;;;;;;;;;;4970843;28;20034;-82
2022/03/23 00:11:46;;;;;;;77.57;34.95;;;;;;;;;;4979082;28;20029;-82
2022/03/23 00:14:18;;;;;;;85.20;37.08;;;;;;;;;;4982170;28;20054;-82
2022/03/23 00:16:45;;;;;;;78.93;36.35;;;;;;;;;;4999843;28;20065;-82
2022/03/23 00:19:11;;;;;;;82.30;36.53;;;;;;;;;;4977319;28;20108;-82
2022/03/23 00:21:38;;;;;;;78.60;36.35;;;;;;;;;;4993743;28;20112;-83
2022/03/23 00:24:04;;;;;;;81.00;36.50;;;;;;;;;;4997981;28;20489;-82
2022/03/23 00:26:31;;;;;;;97.88;39.33;;;;;;;;;;4997511;28;20460;-82
2022/03/23 00:28:57;;;;;;;85.13;36.88;;;;;;;;;;4984528;28;20136;-82
2022/03/23 00:31:23;;;;;;;77.63;36.33;;;;;;;;;;4996862;28;20041;-82
2022/03/23 00:33:50;;;;;;;77.85;35.28;;;;;;;;;;4995314;28;20088;-82
2022/03/23 00:36:16;;;;;;;85.05;37.58;;;;;;;;;;4983241;28;20060;-82
2022/03/23 00:38:43;;;;;;;85.53;36.10;;;;;;;;;;4992274;28;20081;-83
2022/03/23 00:41:10;;;;;;;80.35;38.83;;;;;;;;;;4981370;28;20036;-82
2022/03/23 00:43:36;;;;;;;84.38;37.50;;;;;;;;;;4997565;28;20080;-82
2022/03/23 00:46:02;;;;;;;79.18;34.22;;;;;;;;;;4997019;28;20029;-82
2022/03/23 00:48:28;;;;;;;96.53;38.67;;;;;;;;;;5000139;28;20529;-82
2022/03/23 00:50:54;;;;;;;84.55;40.33;;;;;;;;;;4981828;28;20644;-82
2022/03/23 00:53:21;;;;;;;100.43;39.88;;;;;;;;;;5002600;28;20904;-82
2022/03/23 00:55:47;;;;;;;79.35;36.47;;;;;;;;;;4989449;28;20033;-82
2022/03/23 00:58:13;;;;;;;81.25;37.00;;;;;;;;;;5001281;28;20112;-82
2022/03/23 01:00:41;;;;;;;76.50;37.25;;;;;;;;;;4985396;28;20144;-82
2022/03/23 01:03:07;;;;;;;77.72;34.45;;;;;;;;;;5003073;28;20057;-82
2022/03/23 01:05:33;;;;;;;76.15;33.55;;;;;;;;;;4984427;28;20554;-82
2022/03/23 01:07:59;;;;;;;77.10;34.72;;;;;;;;;;4984625;28;20096;-82
2022/03/23 01:10:25;;;;;;;86.43;36.63;;;;;;;;;;4985128;28;20034;-82
2022/03/23 01:12:53;;;;;;;81.53;33.83;;;;;;;;;;4986525;28;20026;-83
2022/03/23 01:15:20;;;;;;;79.22;37.28;;;;;;;;;;4986848;28;20042;-81
2022/03/23 01:17:46;;;;;;;91.80;36.15;;;;;;;;;;4997883;28;20026;-82
2022/03/23 01:20:14;;;;;;;81.60;34.90;;;;;;;;;;4987467;28;20078;-81
2022/03/23 01:22:40;;;;;;;74.57;34.70;;;;;;;;;;4982017;28;20022;-81
2022/03/23 01:25:08;;;;;;;70.13;32.13;;;;;;;;;;4985255;28;20762;-81
2022/03/23 01:27:34;;;;;;;78.15;34.53;;;;;;;;;;5001155;28;20382;-81
2022/03/23 01:30:00;;;;;;;78.22;34.28;;;;;;;;;;4985885;28;21429;-82
2022/03/23 01:32:27;;;;;;;68.88;32.33;;;;;;;;;;5002924;28;20036;-81
2022/03/23 01:34:53;;;;;;;76.70;34.30;;;;;;;;;;5000958;28;20083;-82
2022/03/23 01:37:19;;;;;;;73.63;34.75;;;;;;;;;;4975597;28;20386;-82
2022/03/23 01:39:45;;;;;;;73.63;34.42;;;;;;;;;;4986577;28;20474;-82
2022/03/23 01:42:11;;;;;;;80.97;34.70;;;;;;;;;;4983807;28;20030;-82
2022/03/23 01:44:37;;;;;;;88.03;35.50;;;;;;;;;;4981170;28;20414;-82
2022/03/23 01:47:11;;;;;;;67.32;32.33;;;;;;;;;;4983781;28;20060;-82
2022/03/23 01:49:39;;;;;;;69.03;31.45;;;;;;;;;;4989543;28;20029;-82
2022/03/23 01:52:06;;;;;;;82.00;34.53;;;;;;;;;;4998724;28;20081;-82
2022/03/23 01:54:32;;;;;;;71.70;33.35;;;;;;;;;;5003501;28;20030;-82
2022/03/23 01:56:59;;;;;;;79.57;35.78;;;;;;;;;;4998523;28;20038;-82
2022/03/23 01:59:26;;;;;;;68.97;30.80;;;;;;;;;;4996582;28;20467;-82
2022/03/23 02:01:53;;;;;;;75.20;35.63;;;;;;;;;;5001287;28;20532;-82
2022/03/23 02:04:19;;;;;;;75.93;32.60;;;;;;;;;;4983817;28;20691;-82
2022/03/23 02:06:46;;;;;;;83.78;34.00;;;;;;;;;;4998986;28;20493;-82
2022/03/23 02:09:12;;;;;;;79.30;34.17;;;;;;;;;;4985631;28;20021;-82
2022/03/23 02:11:38;;;;;;;71.75;33.53;;;;;;;;;;4982681;28;20065;-82
2022/03/23 02:14:05;;;;;;;79.03;35.33;;;;;;;;;;5003366;28;20025;-82
2022/03/23 02:16:38;;;;;;;72.20;33.83;;;;;;;;;;4985719;28;20038;-82
2022/03/23 02:19:04;;;;;;;86.43;35.97;;;;;;;;;;4984837;28;20494;-82
2022/03/23 02:21:31;;;;;;;87.18;36.30;;;;;;;;;;4984422;28;20030;-82
2022/03/23 02:23:57;;;;;;;88.00;36.92;;;;;;;;;;5003132;28;20049;-82
2022/03/23 02:26:24;;;;;;;86.88;39.17;;;;;;;;;;4981493;28;20033;-82
2022/03/23 02:28:51;;;;;;;91.22;37.42;;;;;;;;;;5002391;28;20057;-82
2022/03/23 02:31:18;;;;;;;81.53;37.28;;;;;;;;;;5002103;28;20394;-82
2022/03/23 02:33:44;;;;;;;85.47;37.58;;;;;;;;;;4982511;28;20609;-82
2022/03/23 02:36:10;;;;;;;88.50;36.13;;;;;;;;;;4997196;28;20138;-82
2022/03/23 02:38:37;;;;;;;92.05;38.28;;;;;;;;;;4982694;28;20489;-82
2022/03/23 02:41:03;;;;;;;82.13;36.75;;;;;;;;;;4999103;28;20545;-81
2022/03/23 02:43:29;;;;;;;92.20;38.28;;;;;;;;;;4981924;28;20116;-81
2022/03/23 02:45:55;;;;;;;89.95;39.35;;;;;;;;;;4999484;28;20040;-82
2022/03/23 02:48:22;;;;;;;89.30;37.75;;;;;;;;;;4981640;28;20568;-82
2022/03/23 02:50:48;;;;;;;86.80;37.20;;;;;;;;;;4983870;28;20029;-81
2022/03/23 03:01:52;;;;;;;92.20;38.10;;;;;;;;;;5001245;28;20045;-81
2022/03/23 03:04:19;;;;;;;80.18;36.22;;;;;;;;;;4983547;28;20034;-81
2022/03/23 03:06:46;;;;;;;72.40;33.85;;;;;;;;;;4995790;28;20434;-82
2022/03/23 03:09:12;;;;;;;81.63;35.00;;;;;;;;;;4998307;28;20732;-82
2022/03/23 03:11:38;;;;;;;107.68;40.85;;;;;;;;;;4981510;28;20533;-81
2022/03/23 03:14:05;;;;;;;84.93;38.72;;;;;;;;;;4985688;28;20397;-82
2022/03/23 03:16:38;;;;;;;78.35;35.03;;;;;;;;;;4995838;28;20042;-82
2022/03/23 03:19:05;;;;;;;90.40;40.40;;;;;;;;;;5001037;28;20448;-81
2022/03/23 03:21:32;;;;;;;95.78;39.70;;;;;;;;;;4998150;28;20056;-82
2022/03/23 03:23:58;;;;;;;91.95;39.42;;;;;;;;;;4982078;28;20057;-81
2022/03/23 03:26:25;;;;;;;90.53;38.88;;;;;;;;;;4984190;28;20034;-82
2022/03/23 03:28:51;;;;;;;88.88;39.80;;;;;;;;;;5001888;28;20025;-82
2022/03/23 03:31:17;;;;;;;86.82;39.17;;;;;;;;;;4980855;28;20398;-82
2022/03/23 03:33:43;;;;;;;93.05;37.95;;;;;;;;;;5003244;28;20045;-81
2022/03/23 03:36:10;;;;;;;88.32;38.75;;;;;;;;;;4982400;28;20032;-82
2022/03/23 03:38:37;;;;;;;89.05;38.83;;;;;;;;;;5000240;28;20469;-81
2022/03/23 03:41:03;;;;;;;89.25;39.50;;;;;;;;;;4982695;28;20027;-81
2022/03/23 03:43:31;;;;;;;93.00;40.97;;;;;;;;;;4997905;28;20029;-82
2022/03/23 03:45:58;;;;;;;87.82;39.42;;;;;;;;;;4998897;28;20040;-81
2022/03/23 03:48:24;;;;;;;97.70;41.45;;;;;;;;;;4981194;28;20620;-81
2022/03/23 03:50:51;;;;;;;96.00;39.97;;;;;;;;;;4984794;28;20044;-81
2022/03/23 03:53:17;;;;;;;86.82;37.20;;;;;;;;;;4983118;28;20119;-82
2022/03/23 03:55:43;;;;;;;92.03;40.20;;;;;;;;;;5000701;28;20048;-82
2022/03/23 03:58:09;;;;;;;85.97;37.58;;;;;;;;;;4983001;28;20022;-82
2022/03/23 04:00:36;;;;;;;100.55;41.72;;;;;;;;;;4996612;28;20383;-82
2022/03/23 04:03:03;;;;;;;88.28;37.85;;;;;;;;;;4997942;28;20040;-81
2022/03/23 04:05:29;;;;;;;98.82;42.30;;;;;;;;;;5001825;28;20417;-82
2022/03/23 04:07:56;;;;;;;108.30;41.53;;;;;;;;;;5000746;28;20025;-82
2022/03/23 04:10:22;;;;;;;90.85;40.22;;;;;;;;;;4997394;28;20029;-82
2022/03/23 04:12:48;;;;;;;90.93;38.22;;;;;;;;;;4983501;28;20072;-82
2022/03/23 04:15:15;;;;;;;85.45;38.25;;;;;;;;;;4999783;28;20524;-82
2022/03/23 04:17:42;;;;;;;87.90;38.05;;;;;;;;;;4984639;28;20014;-82
2022/03/23 04:20:09;;;;;;;87.45;37.75;;;;;;;;;;4981191;28;20528;-82
2022/03/23 04:22:35;;;;;;;92.75;39.30;;;;;;;;;;4981796;28;20029;-81
2022/03/23 04:25:01;;;;;;;86.90;38.22;;;;;;;;;;4980071;28;20042;-81
2022/03/23 04:27:27;;;;;;;89.80;38.33;;;;;;;;;;4981792;28;20030;-82
2022/03/23 04:29:53;;;;;;;86.90;37.20;;;;;;;;;;4982647;28;20434;-81
2022/03/23 04:32:19;;;;;;;89.00;39.38;;;;;;;;;;5000813;28;20030;-82
2022/03/23 04:34:45;;;;;;;93.18;39.78;;;;;;;;;;4994533;28;20037;-81
2022/03/23 04:37:11;;;;;;;91.68;38.72;;;;;;;;;;4996674;28;20033;-82
2022/03/23 04:39:37;;;;;;;93.45;38.15;;;;;;;;;;4980964;28;20030;-81
2022/03/23 04:42:04;;;;;;;92.47;38.72;;;;;;;;;;5001528;28;20034;-81
2022/03/23 04:44:30;;;;;;;87.97;38.00;;;;;;;;;;4983916;28;20030;-82
2022/03/23 04:46:56;;;;;;;93.93;37.92;;;;;;;;;;4978611;28;20056;-82
2022/03/23 04:49:22;;;;;;;97.30;37.38;;;;;;;;;;4995167;28;20045;-82
2022/03/23 04:51:48;;;;;;;83.93;37.95;;;;;;;;;;4981445;28;20041;-82
2022/03/23 04:54:15;;;;;;;93.72;39.00;;;;;;;;;;4984624;28;20039;-81
2022/03/23 04:56:41;;;;;;;93.78;38.50;;;;;;;;;;4983428;28;20033;-81
2022/03/23 04:59:07;;;;;;;100.55;39.88;;;;;;;;;;4999985;28;20470;-82
2022/03/23 05:01:34;;;;;;;93.93;40.47;;;;;;;;;;4981420;28;20021;-82
2022/03/23 05:04:00;;;;;;;96.43;41.58;;;;;;;;;;4983572;28;20065;-81
2022/03/23 05:06:26;;;;;;;98.35;41.72;;;;;;;;;;4998536;28;20038;-81
2022/03/23 05:08:52;;;;;;;91.13;37.92;;;;;;;;;;4978061;28;20044;-82
2022/03/23 05:11:18;;;;;;;100.03;38.85;;;;;;;;;;4995568;28;20077;-81
2022/03/23 05:13:44;;;;;;;88.40;39.17;;;;;;;;;;4998278;28;20042;-81
2022/03/23 05:16:23;;;;;;;103.88;42.30;;;;;;;;;;4992565;28;20038;-81
2022/03/23 05:18:49;;;;;;;94.20;38.35;;;;;;;;;;4999179;28;20410;-82
2022/03/23 05:21:15;;;;;;;89.72;39.03;;;;;;;;;;4980621;28;20038;-82
2022/03/23 05:23:41;;;;;;;86.07;37.10;;;;;;;;;;4999654;28;20026;-82
2022/03/23 05:26:07;;;;;;;97.93;40.72;;;;;;;;;;4991716;28;20137;-81
2022/03/23 05:28:33;;;;;;;100.78;41.55;;;;;;;;;;4997378;28;20018;-81
2022/03/23 05:30:59;;;;;;;98.50;39.20;;;;;;;;;;4989239;28;20567;-82
2022/03/23 05:33:25;;;;;;;98.55;40.83;;;;;;;;;;4996252;28;20061;-82
2022/03/23 05:35:51;;;;;;;82.60;38.55;;;;;;;;;;4982891;28;20026;-81
2022/03/23 05:38:17;;;;;;;95.07;41.17;;;;;;;;;;4984352;28;20390;-82
2022/03/23 05:40:43;;;;;;;118.43;48.05;;;;;;;;;;4993573;28;20037;-81
2022/03/23 05:43:09;;;;;;;124.35;50.70;;;;;;;;;;4980725;28;20053;-81
2022/03/23 05:45:35;;;;;;;107.43;44.10;;;;;;;;;;4985761;28;20025;-82
2022/03/23 05:48:02;;;;;;;86.78;38.90;;;;;;;;;;4997096;28;20116;-81
2022/03/23 05:50:28;;;;;;;88.00;39.40;;;;;;;;;;4986360;28;20041;-82
2022/03/23 05:52:54;;;;;;;101.07;40.17;;;;;;;;;;4984032;28;20160;-81
2022/03/23 05:55:20;;;;;;;102.97;41.17;;;;;;;;;;4982881;28;20411;-81
2022/03/23 05:57:46;;;;;;;105.05;41.67;;;;;;;;;;4983861;28;20434;-81
2022/03/23 06:00:12;;;;;;;101.18;42.35;;;;;;;;;;4983740;28;20030;-81
2022/03/23 06:02:39;;;;;;;93.53;39.97;;;;;;;;;;5000869;28;20185;-81
2022/03/23 06:05:06;;;;;;;95.47;39.72;;;;;;;;;;5001295;28;20033;-81
2022/03/23 06:07:34;;;;;;;107.20;42.35;;;;;;;;;;4980663;28;20478;-82
2022/03/23 06:10:00;;;;;;;94.15;39.55;;;;;;;;;;5001214;28;20080;-82
2022/03/23 06:12:26;;;;;;;92.95;39.03;;;;;;;;;;4998693;28;20069;-82
2022/03/23 06:14:52;;;;;;;96.28;40.80;;;;;;;;;;5001577;28;20034;-81
2022/03/23 06:17:18;;;;;;;99.03;41.00;;;;;;;;;;4988190;28;20050;-81
2022/03/23 06:19:44;;;;;;;89.80;39.92;;;;;;;;;;4981504;28;20129;-82
2022/03/23 06:22:11;;;;;;;100.32;42.75;;;;;;;;;;4999051;28;21361;-82
2022/03/23 06:24:37;;;;;;;116.72;46.42;;;;;;;;;;5000280;28;20146;-81
2022/03/23 06:27:04;;;;;;;96.88;42.80;;;;;;;;;;5000963;28;20561;-82
2022/03/23 06:29:30;;;;;;;100.35;42.83;;;;;;;;;;4998043;28;20045;-81
2022/03/23 06:31:59;;;;;;;98.85;43.47;;;;;;;;;;4995452;28;20467;-82
2022/03/23 06:34:25;;;;;;;87.47;40.45;;;;;;;;;;4985719;28;20110;-81
2022/03/23 06:36:51;;;;;;;105.68;42.38;;;;;;;;;;4992066;28;20061;-82
2022/03/23 06:39:17;;;;;;;91.00;43.55;;;;;;;;;;4992157;28;20287;-82
2022/03/23 06:41:44;;;;;;;86.25;41.70;;;;;;;;;;4983701;28;20108;-81
2022/03/23 06:44:10;;;;;;;85.20;39.05;;;;;;;;;;4983309;28;20084;-82
2022/03/23 06:46:37;;;;;;;82.35;38.15;;;;;;;;;;4992116;28;20049;-82
2022/03/23 06:49:03;;;;;;;76.05;37.08;;;;;;;;;;4999055;28;20036;-82
2022/03/23 06:51:29;;;;;;;79.70;36.42;;;;;;;;;;4985793;28;20125;-82
2022/03/23 06:53:55;;;;;;;76.95;35.47;;;;;;;;;;4985682;28;20049;-82
2022/03/23 06:56:22;;;;;;;79.40;36.00;;;;;;;;;;4995365;28;20593;-82
2022/03/23 06:58:48;;;;;;;83.50;37.42;;;;;;;;;;5000697;28;20100;-82
2022/03/23 07:01:14;;;;;;;79.15;37.47;;;;;;;;;;4986583;28;20045;-82
2022/03/23 07:03:40;;;;;;;76.75;36.45;;;;;;;;;;4997136;28;20040;-82
2022/03/23 07:06:06;;;;;;;70.82;35.42;;;;;;;;;;4996249;28;20046;-82
2022/03/23 07:11:17;;;;;;;68.18;33.80;;;;;;;;;;5003215;28;20061;-82
2022/03/23 07:13:43;;;;;;;76.53;35.83;;;;;;;;;;4998137;28;20068;-82
2022/03/23 07:16:09;;;;;;;68.30;35.17;;;;;;;;;;4977179;28;20696;-81
2022/03/23 07:18:35;;;;;;;80.55;34.65;;;;;;;;;;4980338;28;20022;-82
2022/03/23 07:21:04;;;;;;;72.43;34.47;;;;;;;;;;4999815;28;20075;-82
2022/03/23 07:23:30;;;;;;;71.75;33.80;;;;;;;;;;4982365;28;20743;-82
2022/03/23 07:25:56;;;;;;;68.93;33.75;;;;;;;;;;4984676;28;20053;-82
2022/03/23 07:28:22;;;;;;;62.58;32.95;;;;;;;;;;4978413;28;21776;-82
2022/03/23 07:30:48;;;;;;;63.78;32.35;;;;;;;;;;4984964;28;20064;-82
2022/03/23 07:33:14;;;;;;;60.35;31.02;;;;;;;;;;4981449;28;20084;-82
2022/03/23 07:35:40;;;;;;;65.70;32.78;;;;;;;;;;4981340;28;20033;-82
2022/03/23 07:38:06;;;;;;;75.05;33.55;;;;;;;;;;4996644;28;20429;-82
2022/03/23 07:40:32;;;;;;;62.45;32.67;;;;;;;;;;4992018;28;20551;-83
2022/03/23 07:42:59;;;;;;;70.55;32.45;;;;;;;;;;4994347;28;20038;-82
2022/03/23 07:45:26;;;;;;;62.83;31.45;;;;;;;;;;4995942;28;20040;-82
2022/03/23 07:47:53;;;;;;;55.58;30.02;;;;;;;;;;4996183;28;20038;-82
2022/03/23 07:50:19;;;;;;;60.83;30.83;;;;;;;;;;4993351;28;20097;-82
2022/03/23 07:52:45;;;;;;;58.50;29.73;;;;;;;;;;4993384;28;22879;-82
2022/03/23 07:55:11;;;;;;;53.45;28.83;;;;;;;;;;4979621;28;20039;-82
2022/03/23 07:57:37;;;;;;;59.03;30.05;;;;;;;;;;4995793;28;20026;-83
2022/03/23 08:00:04;;;;;;;62.20;30.08;;;;;;;;;;4999974;28;20016;-82
2022/03/23 08:02:30;;;;;;;62.47;28.92;;;;;;;;;;4980721;28;20084;-82
2022/03/23 08:04:57;;;;;;;66.25;30.80;;;;;;;;;;4981301;28;20470;-82
2022/03/23 08:07:23;;;;;;;52.80;29.90;;;;;;;;;;4979791;28;20513;-82
2022/03/23 08:09:49;;;;;;;57.03;29.20;;;;;;;;;;4981570;28;20508;-82
2022/03/23 08:12:17;;;;;;;48.63;27.30;;;;;;;;;;4981161;28;20038;-82
2022/03/23 08:14:43;;;;;;;59.25;29.13;;;;;;;;;;4975517;28;20026;-83
2022/03/23 08:17:09;;;;;;;48.25;28.10;;;;;;;;;;4994822;28;20540;-82
2022/03/23 08:19:35;;;;;;;53.13;29.42;;;;;;;;;;4983090;28;20076;-82
2022/03/23 08:22:05;;;;;;;57.42;27.75;;;;;;;;;;4983728;28;20893;-82
2022/03/23 08:24:31;;;;;;;51.55;28.25;;;;;;;;;;4999432;28;20405;-82
2022/03/23 08:26:58;;;;;;;41.72;26.13;;;;;;;;;;4995755;28;20132;-82
2022/03/23 08:29:24;;;;;;;47.25;27.70;;;;;;;;;;4982007;28;20026;-83
2022/03/23 08:31:51;;;;;;;48.83;25.58;;;;;;;;;;4981237;28;20504;-82
2022/03/23 08:34:18;;;;;;;47.10;26.65;;;;;;;;;;4990124;28;20041;-82
2022/03/23 08:36:44;;;;;;;45.78;25.17;;;;;;;;;;4977060;28;20029;-82
2022/03/23 08:39:11;;;;;;;52.80;28.67;;;;;;;;;;4985623;28;20616;-83
2022/03/23 08:41:37;;;;;;;54.55;26.05;;;;;;;;;;4982650;28;20029;-83
2022/03/23 08:44:04;;;;;;;47.47;26.67;;;;;;;;;;4984065;28;20038;-83
2022/03/23 08:46:30;;;;;;;52.63;26.42;;;;;;;;;;5000869;28;20030;-83
2022/03/23 08:48:56;;;;;;;41.50;25.10;;;;;;;;;;4998823;28;20126;-82
2022/03/23 08:51:22;;;;;;;43.58;25.92;;;;;;;;;;4984350;28;20061;-82
2022/03/23 08:53:48;;;;;;;44.20;25.25;;;;;;;;;;5000883;28;20513;-82
2022/03/23 08:56:14;;;;;;;45.42;25.73;;;;;;;;;;4980749;28;20405;-82
2022/03/23 08:58:47;;;;;;;43.67;26.02;;;;;;;;;;4979154;28;20376;-82
2022/03/23 09:01:14;;;;;;;51.90;25.02;;;;;;;;;;4981891;28;20077;-83
2022/03/23 09:03:40;;;;;;;45.95;25.23;;;;;;;;;;4984483;28;20030;-82
2022/03/23 09:06:06;;;;;;;44.03;24.83;;;;;;;;;;4982454;28;20030;-82
2022/03/23 09:08:32;;;;;;;42.45;25.20;;;;;;;;;;4986070;28;20516;-82
2022/03/23 09:10:59;;;;;;;45.80;24.70;;;;;;;;;;4980058;28;20124;-82
2022/03/23 09:13:25;;;;;;;37.78;24.13;;;;;;;;;;5003591;28;20927;-82
2022/03/23 09:15:51;;;;;;;39.33;25.70;;;;;;;;;;4983995;28;20049;-82
2022/03/23 09:18:17;;;;;;;38.15;23.52;;;;;;;;;;5005412;28;20432;-81
2022/03/23 09:20:44;;;;;;;36.92;24.00;;;;;;;;;;4983691;28;20030;-81
2022/03/23 09:23:10;;;;;;;37.28;22.45;;;;;;;;;;4986653;28;20034;-81
2022/03/23 09:25:36;;;;;;;37.40;22.63;;;;;;;;;;4982918;28;20481;-81
2022/03/23 09:28:03;;;;;;;35.90;22.30;;;;;;;;;;4997533;28;20026;-81
2022/03/23 09:30:29;;;;;;;38.88;22.88;;;;;;;;;;4996047;28;20536;-80
2022/03/23 09:32:57;;;;;;;33.97;21.13;;;;;;;;;;5001383;28;20048;-81
2022/03/23 09:35:23;;;;;;;32.20;20.42;;;;;;;;;;4999765;28;20111;-81
2022/03/23 09:37:50;;;;;;;37.55;21.35;;;;;;;;;;5000714;28;20026;-81
2022/03/23 09:40:18;;;;;;;34.90;21.35;;;;;;;;;;4980226;28;20029;-81
2022/03/23 09:42:48;;;;;;;44.33;22.48;;;;;;;;;;4995840;28;20030;-81
2022/03/23 09:45:22;;;;;;;36.22;21.95;;;;;;;;;;4982117;28;20520;-80
2022/03/23 09:47:48;;;;;;;33.83;21.50;;;;;;;;;;5002464;28;20018;-81
2022/03/23 09:50:14;;;;;;;37.65;22.83;;;;;;;;;;4988621;28;20474;-81
2022/03/23 09:52:43;;;;;;;31.48;21.48;;;;;;;;;;4982355;28;20033;-80
2022/03/23 09:55:09;;;;;;;40.78;23.52;;;;;;;;;;4995126;28;20505;-81
2022/03/23 09:57:37;;;;;;;33.80;22.52;;;;;;;;;;4984134;28;20109;-81
2022/03/23 10:00:03;;;;;;;35.90;23.65;;;;;;;;;;4996384;28;20397;-81
2022/03/23 10:02:48;;;;;;;42.70;23.23;;;;;;;;;;5000685;28;20084;-81
2022/03/23 10:05:33;;;;;;;34.95;23.48;;;;;;;;;;5000560;28;20045;-80
2022/03/23 10:08:09;;;;;;;37.75;23.17;;;;;;;;;;4985206;28;20038;-81
2022/03/23 10:10:38;;;;;;;37.17;21.75;;;;;;;;;;4983808;28;20128;-80
2022/03/23 10:13:17;;;;;;;31.15;20.30;;;;;;;;;;4985658;28;20468;-80
2022/03/23 10:16:02;;;;;;;31.98;20.45;;;;;;;;;;4997805;28;20367;-81
2022/03/23 10:18:47;;;;;;;32.35;19.63;;;;;;;;;;4989009;28;20500;-80
2022/03/23 10:21:13;;;;;;;25.43;17.70;;;;;;;;;;4983723;28;20486;-81
2022/03/23 10:23:59;;;;;;;23.92;16.23;;;;;;;;;;4984849;28;20277;-80
2022/03/23 10:26:29;;;;;;;24.80;18.30;;;;;;;;;;4980950;28;20080;-81
2022/03/23 10:28:55;;;;;;;26.58;18.20;;;;;;;;;;4998250;28;20065;-81
2022/03/23 10:31:22;;;;;;;27.00;18.20;;;;;;;;;;4984763;28;20478;-80
2022/03/23 10:33:58;;;;;;;24.48;16.88;;;;;;;;;;4982462;28;20045;-81
2022/03/23 10:36:28;;;;;;;25.85;17.65;;;;;;;;;;4998069;28;20498;-81
2022/03/23 10:39:01;;;;;;;23.27;16.85;;;;;;;;;;4998192;28;20129;-81
2022/03/23 10:41:29;;;;;;;24.40;16.23;;;;;;;;;;4997146;28;20664;-81
2022/03/23 10:43:55;;;;;;;24.45;17.92;;;;;;;;;;4981647;28;20045;-81
2022/03/23 10:46:21;;;;;;;24.88;17.58;;;;;;;;;;4983833;28;20049;-81
2022/03/23 10:48:58;;;;;;;25.20;16.00;;;;;;;;;;4984225;28;20073;-80
2022/03/23 10:51:25;;;;;;;23.27;16.92;;;;;;;;;;4980994;28;20030;-80
2022/03/23 10:54:20;;;;;;;27.70;16.27;;;;;;;;;;4966029;28;20294;-81
2022/03/23 10:56:46;;;;;;;23.35;17.63;;;;;;;;;;4986895;28;20448;-80
2022/03/23 10:59:26;;;;;;;26.88;17.30;;;;;;;;;;4986497;28;20030;-81
2022/03/23 11:01:57;;;;;;;28.00;16.77;;;;;;;;;;4976471;28;20707;-81
2022/03/23 11:04:24;;;;;;;25.20;16.67;;;;;;;;;;4982044;28;20356;-80
2022/03/23 11:06:50;;;;;;;22.38;15.32;;;;;;;;;;4978025;28;20032;-81
2022/03/23 11:18:07;;;;;;;83.88;58.80;;;;;;;;;;5000149;28;20083;-80
2022/03/23 11:20:46;;;;;;;24.50;14.95;;;;;;;;;;4977976;28;20030;-80
2022/03/23 11:23:19;;;;;;;22.08;13.93;;;;;;;;;;4978031;28;20117;-80
2022/03/23 11:25:48;;;;;;;29.00;15.15;;;;;;;;;;4980312;28;20042;-80
2022/03/23 11:28:15;;;;;;;23.42;14.73;;;;;;;;;;4972577;28;20033;-80
2022/03/23 11:30:42;;;;;;;29.10;13.82;;;;;;;;;;4976990;28;20580;-80
2022/03/23 11:33:09;;;;;;;23.20;15.48;;;;;;;;;;4983112;28;20034;-79
2022/03/23 11:35:37;;;;;;;32.42;14.45;;;;;;;;;;4983939;28;20045;-80
2022/03/23 11:38:05;;;;;;;29.08;14.35;;;;;;;;;;4992547;28;20026;-80
2022/03/23 11:40:31;;;;;;;27.77;13.95;;;;;;;;;;4978914;28;20030;-81
2022/03/23 11:42:58;;;;;;;20.33;13.45;;;;;;;;;;4997075;28;20065;-81
2022/03/23 11:45:24;;;;;;;32.50;14.32;;;;;;;;;;4993637;28;20564;-81
2022/03/23 11:47:50;;;;;;;29.38;16.08;;;;;;;;;;4995585;28;20061;-81
2022/03/23 11:50:19;;;;;;;32.97;15.18;;;;;;;;;;4978923;28;20120;-81
2022/03/23 11:53:12;;;;;;;23.45;15.85;;;;;;;;;;4978495;28;20752;-81
2022/03/23 11:55:40;;;;;;;32.20;15.88;;;;;;;;;;4993931;28;20112;-81
2022/03/23 11:58:16;;;;;;;26.55;15.52;;;;;;;;;;4994588;28;20097;-81
2022/03/23 12:00:55;;;;;;;28.98;15.23;;;;;;;;;;4978612;28;20030;-81
2022/03/23 12:03:40;;;;;;;26.00;15.02;;;;;;;;;;4980583;28;20030;-81
2022/03/23 12:06:14;;;;;;;25.53;16.00;;;;;;;;;;4978333;28;20038;-81
2022/03/23 12:08:47;;;;;;;30.35;14.65;;;;;;;;;;4981079;28;20034;-81
2022/03/23 12:11:32;;;;;;;31.45;14.10;;;;;;;;;;4996196;28;20125;-81
2022/03/23 12:13:59;;;;;;;30.43;12.50;;;;;;;;;;4979110;28;20499;-80
2022/03/23 12:16:57;;;;;;;28.10;13.90;;;;;;;;;;4981745;28;20054;-81
2022/03/23 12:19:24;;;;;;;31.08;12.90;;;;;;;;;;4935683;28;20050;-80
2022/03/23 12:21:56;;;;;;;33.17;12.13;;;;;;;;;;4998960;28;20647;-81
2022/03/23 12:24:33;;;;;;;27.05;11.27;;;;;;;;;;4998395;28;20480;-80
2022/03/23 12:27:02;;;;;;;24.92;11.05;;;;;;;;;;4980115;28;20076;-80
2022/03/23 12:29:29;;;;;;;33.10;10.68;;;;;;;;;;4999111;28;20751;-80
2022/03/23 12:32:06;;;;;;;27.13;10.77;;;;;;;;;;4998454;28;20125;-80
2022/03/23 12:34:35;;;;;;;23.35;9.82;;;;;;;;;;4999679;28;20058;-80
2022/03/23 12:37:16;;;;;;;22.67;9.50;;;;;;;;;;4978309;28;20038;-80
2022/03/23 12:39:47;;;;;;;28.45;8.48;;;;;;;;;;4984052;28;20034;-80
2022/03/23 12:42:13;;;;;;;31.77;11.05;;;;;;;;;;4993562;28;20033;-80
2022/03/23 12:44:40;;;;;;;28.80;10.43;;;;;;;;;;4999157;28;20089;-80
2022/03/23 12:47:12;;;;;;;35.67;10.30;;;;;;;;;;4985838;28;20033;-80
2022/03/23 12:58:10;;;;;;;30.20;9.85;;;;;;;;;;4996154;28;20041;-81
2022/03/23 13:00:56;;;;;;;33.20;10.18;;;;;;;;;;4983347;28;20034;-80
2022/03/23 13:03:42;;;;;;;32.80;13.05;;;;;;;;;;4990003;28;20398;-80
2022/03/23 13:06:13;;;;;;;29.80;10.93;;;;;;;;;;4990766;28;20034;-81
2022/03/23 13:08:48;;;;;;;57.38;16.17;;;;;;;;;;4985619;28;20033;-80
2022/03/23 13:11:16;;;;;;;29.17;11.50;;;;;;;;;;4988495;28;20038;-81
2022/03/23 13:13:45;;;;;;;47.42;14.57;;;;;;;;;;5003766;28;20031;-80
2022/03/23 13:16:12;;;;;;;46.63;15.40;;;;;;;;;;4989515;28;20129;-80
2022/03/23 13:18:39;;;;;;;38.30;13.48;;;;;;;;;;4980697;28;20042;-81
2022/03/23 13:21:24;;;;;;;36.50;11.88;;;;;;;;;;4985021;28;20275;-80
2022/03/23 13:23:55;;;;;;;31.83;9.93;;;;;;;;;;4986086;28;20031;-81
2022/03/23 13:26:22;;;;;;;46.35;12.57;;;;;;;;;;4994183;28;20121;-81
2022/03/23 13:28:52;;;;;;;19.90;9.55;;;;;;;;;;4986243;28;20045;-81
2022/03/23 13:31:22;;;;;;;30.00;10.90;;;;;;;;;;4985103;28;20018;-82
2022/03/23 13:33:50;;;;;;;35.10;10.27;;;;;;;;;;4997324;28;20413;-81
2022/03/23 13:36:17;;;;;;;30.98;11.85;;;;;;;;;;4984594;28;20494;-81
2022/03/23 13:38:47;;;;;;;30.63;9.82;;;;;;;;;;4992606;28;20023;-81
2022/03/23 13:43:59;;;;;;;156.15;38.28;;;;;;;;;;4997815;28;20092;-81
2022/03/23 13:46:27;;;;;;;78.78;23.67;;;;;;;;;;4976251;28;20034;-81
2022/03/23 13:48:58;;;;;;;91.68;21.77;;;;;;;;;;4984563;28;20022;-81
2022/03/23 13:51:24;;;;;;;76.90;16.50;;;;;;;;;;4996039;28;20033;-83
2022/03/23 13:53:50;;;;;;;59.42;17.10;;;;;;;;;;4985119;28;20116;-82
2022/03/23 13:56:17;;;;;;;30.30;12.20;;;;;;;;;;4995298;28;22914;-81
2022/03/23 13:58:44;;;;;;;54.67;13.45;;;;;;;;;;5000318;28;20029;-82
2022/03/23 14:01:10;;;;;;;37.00;13.45;;;;;;;;;;4997820;28;20045;-82
2022/03/23 14:03:37;;;;;;;36.10;12.40;;;;;;;;;;5001142;28;20750;-82
2022/03/23 14:06:11;;;;;;;39.00;12.18;;;;;;;;;;4993360;28;20036;-82
2022/03/23 14:08:38;;;;;;;36.33;12.93;;;;;;;;;;4983635;28;20030;-81
2022/03/23 14:11:04;;;;;;;22.60;11.02;;;;;;;;;;4986280;28;20658;-81
2022/03/23 14:13:31;;;;;;;22.83;11.27;;;;;;;;;;4986398;28;20037;-82
2022/03/23 14:15:58;;;;;;;31.98;10.90;;;;;;;;;;4994363;28;20042;-82
2022/03/23 14:18:25;;;;;;;28.10;10.77;;;;;;;;;;4980392;28;20545;-81
2022/03/23 14:20:52;;;;;;;28.23;11.18;;;;;;;;;;4999508;28;20030;-82
2022/03/23 14:23:20;;;;;;;21.48;10.15;;;;;;;;;;4997702;28;20064;-81
2022/03/23 14:25:48;;;;;;;33.90;11.18;;;;;;;;;;4994627;28;20042;-81
2022/03/23 14:28:20;;;;;;;29.63;11.73;;;;;;;;;;4997702;28;20497;-81
2022/03/23 14:30:49;;;;;;;35.53;10.02;;;;;;;;;;4982711;28;20044;-81
2022/03/23 14:33:22;;;;;;;25.83;11.07;;;;;;;;;;4991769;28;20036;-81
2022/03/23 14:35:48;;;;;;;29.02;10.85;;;;;;;;;;4991562;28;20045;-82
2022/03/23 14:38:15;;;;;;;30.55;11.93;;;;;;;;;;5000995;28;20100;-82
2022/03/23 14:40:49;;;;;;;28.17;10.05;;;;;;;;;;4980617;28;20026;-81
2022/03/23 14:43:32;;;;;;;24.40;10.45;;;;;;;;;;4985410;28;20072;-82
2022/03/23 14:46:21;;;;;;;26.10;10.18;;;;;;;;;;4992675;28;20091;-82
2022/03/23 14:48:59;;;;;;;23.65;11.18;;;;;;;;;;5004045;28;20046;-81
2022/03/23 14:51:25;;;;;;;27.38;9.45;;;;;;;;;;4998887;28;20696;-81
2022/03/23 14:53:51;;;;;;;28.83;9.82;;;;;;;;;;4979656;28;20029;-82